Taos, NM

1:29 PM MDT on May 25, 2015 (GMT -0600)
Canon | | Change Station
CLOSE
Current Station
Personal Weather Station
Location: Taos, NM
Elevation: 7001 ft
Nearby Weather Stations

Elev 7001 ft 36.39 °N, 105.56 °W | Updated 39 seconds ago

Partly Cloudy
Partly Cloudy
68.0 °F
Feels Like 68.0 °F
N
6.8
Wind Variable Wind from NNW

Today
High -- | Low -- °F
--% Chance of Precip.
Yesterday
High -- | Low -- °F
Precip. -- in
5:49 AM 8:09 PM
Waxing Crescent, 51% visible
Pressure 30.03 in
Visibility 10.0 miles
Clouds Few 7000 ft
Mostly Cloudy 10000 ft
Dew Point 44 °F
Humidity 42%
Rainfall 0.00 in
Snow Depth Not available.
UV 7 out of 12
Pollen 7.20 out of 12
Air Quality Not available.
Flu Activity Local Activity
METAR KSKX 251915Z AUTO 14006KT 10SM FEW070 BKN100 16/01 A3003 RMK AO1

More Conditions Fewer Conditions

Pressure 30.03 in
Visibility 10.0 miles
Clouds Few 7000 ft
Mostly Cloudy 10000 ft
Dew Point 44 °F
Humidity 42%
Rainfall 0.00 in
Snow Depth Not available.
UV 7 out of 12
Pollen 7.20 out of 12
Air Quality Not available.
Flu Activity Local Activity
METAR KSKX 251915Z AUTO 14006KT 10SM FEW070 BKN100 16/01 A3003 RMK AO1

More Conditions Fewer Conditions

Nowcast | as of 12:04 PM MDT on May 25, 2015

Showers and thunderstorms will increase in coverage through early afternoon. These showers and thunderstorms will produce brief gusty winds with light to moderate rainfall. Occasional cloud to ground lightning will accompany the thunderstorms. A quick tenth of an inch of rain will be possible with the stronger cells...but most areas will see less than a tenth of an inch. A few locations that will likely be impacted include Interstate 40 between Thoreau and Grants along with areas from near Heron and El Vado lake eastward to the west slopes of the Tusas Mountains including Canjilon and Canjilon Lakes.

×

10-Day Weather Forecast

Almanac

Astronomy

May. 25, 2015 Rise Set
Actual Time
Civil Twilight
Nautical Twilight
Astronomical Twilight
Moon
Length of Visible Light
Length of Day
Tomorrow will be .
, % of the Moon is Illuminated

Today's Extremes

State Highs State Lows

Community

WunderPhotos

Upload Photos

1,824,093 photos uploaded!

WunderBlogs® & News

Nearby

Air Quality

  Air Quality AQ Index Pollutant
Not available.

Snow Depth

Station Depth Elevation

Earthquake Activity

City Distance Mag. Time & Date
Minimum magnitude displayed is 2.5.

Coastal Water Temperatures

Place Temperature

Stations

Nearby Weather Stations

Station Location Temp. Windchill Dew Point Humidity Wind Precip. Elev Updated Type